createdAt,value
2018-06-14T00:01:08.215Z,14.70
2018-06-14T00:03:37.308Z,14.70
2018-06-14T00:06:06.642Z,14.70
2018-06-14T00:08:35.569Z,14.70
2018-06-14T00:11:04.493Z,14.70
2018-06-14T00:13:33.371Z,14.70
2018-06-14T00:16:02.223Z,14.70
2018-06-14T00:18:36.689Z,14.70
2018-06-14T00:21:05.463Z,14.70
2018-06-14T00:23:34.233Z,14.70
2018-06-14T00:26:03.039Z,14.70
2018-06-14T00:28:31.949Z,14.70
2018-06-14T00:31:00.850Z,14.70
2018-06-14T00:33:29.836Z,14.70
2018-06-14T00:35:58.619Z,14.70
2018-06-14T00:38:27.556Z,14.70
2018-06-14T00:40:56.281Z,14.70
2018-06-14T00:43:25.072Z,14.70
2018-06-14T00:45:53.911Z,14.70
2018-06-14T00:48:22.750Z,14.80
2018-06-14T00:50:51.601Z,14.70
2018-06-14T00:53:20.461Z,14.70
2018-06-14T00:55:49.254Z,14.70
2018-06-14T00:58:18.067Z,14.60
2018-06-14T01:00:46.867Z,14.60
2018-06-14T01:03:15.624Z,14.60
2018-06-14T01:05:44.421Z,14.60
2018-06-14T01:08:13.415Z,14.60
2018-06-14T01:10:42.560Z,14.50
2018-06-14T01:13:11.568Z,14.50
2018-06-14T01:15:40.593Z,14.50
2018-06-14T01:18:09.458Z,14.50
2018-06-14T01:20:38.344Z,14.60
2018-06-14T01:23:07.130Z,14.50
2018-06-14T01:25:35.972Z,14.60
2018-06-14T01:28:04.801Z,14.50
2018-06-14T01:30:33.763Z,14.50
2018-06-14T01:33:02.989Z,14.50
2018-06-14T01:35:31.888Z,14.50
2018-06-14T01:38:12.006Z,14.60
2018-06-14T01:40:40.781Z,14.50
2018-06-14T01:43:09.638Z,14.50
2018-06-14T01:45:38.461Z,14.40
2018-06-14T01:48:07.868Z,14.40
2018-06-14T01:50:36.707Z,14.50
2018-06-14T01:53:06.510Z,14.50
2018-06-14T01:55:35.638Z,14.50
2018-06-14T01:58:05.065Z,14.50
2018-06-14T02:00:33.946Z,14.50
2018-06-14T02:03:02.823Z,14.60
2018-06-14T02:05:31.613Z,14.60
2018-06-14T02:08:00.541Z,14.70
2018-06-14T02:12:57.872Z,14.70
2018-06-14T02:15:28.405Z,14.70
2018-06-14T02:17:58.384Z,14.70
2018-06-14T02:20:27.201Z,14.70
2018-06-14T02:22:56.103Z,14.70
2018-06-14T02:25:25.215Z,14.70
2018-06-14T02:27:54.093Z,14.70
2018-06-14T02:30:23.377Z,14.80
2018-06-14T02:32:52.188Z,14.80
2018-06-14T02:35:21.259Z,14.80
2018-06-14T02:37:50.527Z,14.80
2018-06-14T02:40:19.367Z,14.80
2018-06-14T02:42:48.164Z,14.80
2018-06-14T02:45:16.958Z,14.70
2018-06-14T02:47:45.780Z,14.70
2018-06-14T02:50:14.627Z,14.60
2018-06-14T02:52:43.703Z,14.50
2018-06-14T02:55:12.593Z,14.50
2018-06-14T02:57:41.539Z,14.50
2018-06-14T03:02:44.747Z,14.50
2018-06-14T03:05:13.628Z,14.50
2018-06-14T03:07:42.439Z,14.50
2018-06-14T03:10:11.250Z,14.40
2018-06-14T03:12:40.098Z,14.40
2018-06-14T03:17:37.503Z,14.50
2018-06-14T03:20:06.351Z,14.50
2018-06-14T03:22:35.135Z,14.40
2018-06-14T03:25:03.973Z,14.40
2018-06-14T03:27:32.851Z,14.40
2018-06-14T03:30:01.751Z,14.40
2018-06-14T03:32:30.682Z,14.40
2018-06-14T03:34:59.437Z,14.40
2018-06-14T03:37:28.238Z,14.40
2018-06-14T03:39:57.110Z,14.50
2018-06-14T03:42:25.965Z,14.50
2018-06-14T03:44:54.924Z,14.50
2018-06-14T03:47:23.898Z,14.60
2018-06-14T03:49:52.610Z,14.60
2018-06-14T03:52:21.323Z,14.50
2018-06-14T03:54:50.266Z,14.50
2018-06-14T03:57:19.059Z,14.60
2018-06-14T03:59:47.955Z,14.60
2018-06-14T04:02:16.952Z,14.60
2018-06-14T04:04:45.809Z,14.60
2018-06-14T04:07:14.743Z,14.70
2018-06-14T04:09:43.861Z,14.60
2018-06-14T04:12:12.751Z,14.60
2018-06-14T04:14:41.551Z,14.60
2018-06-14T04:17:10.511Z,14.70
2018-06-14T04:19:39.697Z,14.70
2018-06-14T04:22:08.523Z,14.70
2018-06-14T04:24:37.385Z,14.80
2018-06-14T04:27:06.345Z,14.90
2018-06-14T04:29:35.369Z,14.90
2018-06-14T04:32:04.204Z,15.00
2018-06-14T04:34:33.013Z,15.00
2018-06-14T04:37:01.861Z,15.10
2018-06-14T04:39:30.742Z,15.10
2018-06-14T04:41:59.569Z,15.10
2018-06-14T04:44:28.557Z,15.00
2018-06-14T04:46:57.444Z,15.00
2018-06-14T04:51:54.552Z,14.90
2018-06-14T04:54:23.929Z,14.90
2018-06-14T04:59:21.253Z,15.00
2018-06-14T05:01:50.095Z,15.10
2018-06-14T05:04:19.159Z,15.10
2018-06-14T05:06:48.286Z,15.10
2018-06-14T05:09:17.212Z,15.10
2018-06-14T05:12:06.608Z,15.10
2018-06-14T05:14:35.621Z,15.20
2018-06-14T05:17:04.567Z,15.20
2018-06-14T05:19:33.454Z,15.10
2018-06-14T05:22:02.360Z,15.10
2018-06-14T05:24:31.248Z,15.20
2018-06-14T05:27:00.230Z,15.10
2018-06-14T05:29:29.080Z,15.10
2018-06-14T05:31:58.099Z,15.10
2018-06-14T05:34:26.935Z,15.10
2018-06-14T05:36:55.714Z,15.30
2018-06-14T05:39:28.733Z,15.40
2018-06-14T05:41:58.091Z,15.70
2018-06-14T05:44:29.329Z,15.80
2018-06-14T05:46:58.221Z,15.90
2018-06-14T05:49:27.038Z,16.10
2018-06-14T05:51:55.845Z,16.20
2018-06-14T05:54:24.917Z,16.30
2018-06-14T05:56:53.609Z,16.50
2018-06-14T05:59:22.368Z,16.60
2018-06-14T06:01:51.184Z,16.80
2018-06-14T06:04:19.939Z,17.00
2018-06-14T06:06:48.692Z,17.20
2018-06-14T06:09:17.471Z,17.20
2018-06-14T06:11:46.226Z,17.10
2018-06-14T06:14:15.398Z,17.10
2018-06-14T06:16:44.562Z,17.10
2018-06-14T06:19:14.482Z,17.10
2018-06-14T06:24:41.237Z,17.20
2018-06-14T06:27:11.546Z,17.40
2018-06-14T06:29:40.380Z,17.40
2018-06-14T06:32:09.229Z,17.50
2018-06-14T06:34:38.058Z,17.40
2018-06-14T06:37:07.038Z,17.30
2018-06-14T06:39:35.854Z,17.50
2018-06-14T06:42:05.173Z,17.60
2018-06-14T06:44:34.435Z,17.90
2018-06-14T06:47:09.101Z,18.30
2018-06-14T06:49:37.996Z,18.50
2018-06-14T06:52:07.175Z,18.70
2018-06-14T06:54:36.092Z,18.90
2018-06-14T06:57:06.259Z,19.10
2018-06-14T06:59:35.175Z,19.30
2018-06-14T07:02:04.009Z,19.50
2018-06-14T07:04:33.007Z,19.40
2018-06-14T07:07:01.837Z,19.60
2018-06-14T07:09:30.571Z,19.60
2018-06-14T07:11:59.390Z,19.50
2018-06-14T07:14:28.285Z,19.50
2018-06-14T07:16:57.187Z,19.70
2018-06-14T07:19:26.136Z,19.80
2018-06-14T07:22:00.904Z,19.80
2018-06-14T07:24:29.659Z,19.90
2018-06-14T07:26:58.581Z,19.90
2018-06-14T07:29:27.380Z,19.90
2018-06-14T07:31:56.222Z,19.80
2018-06-14T07:34:25.108Z,19.80
2018-06-14T07:36:53.948Z,19.80
2018-06-14T07:39:22.808Z,20.00
2018-06-14T07:41:51.932Z,19.80
2018-06-14T07:44:20.830Z,19.60
2018-06-14T07:49:18.902Z,19.40
2018-06-14T07:51:47.620Z,19.40
2018-06-14T07:54:16.493Z,19.40
2018-06-14T07:56:45.262Z,19.30
2018-06-14T07:59:14.161Z,19.30
2018-06-14T08:01:43.267Z,19.20
2018-06-14T08:04:12.090Z,18.80
2018-06-14T08:06:41.658Z,18.70
2018-06-14T08:09:11.480Z,18.50
2018-06-14T08:11:41.104Z,18.40
2018-06-14T08:14:10.346Z,18.30
2018-06-14T08:16:39.591Z,18.20
2018-06-14T08:19:08.773Z,18.10
2018-06-14T08:21:37.578Z,18.10
2018-06-14T08:24:06.462Z,18.00
2018-06-14T08:26:35.274Z,17.90
2018-06-14T08:29:04.183Z,17.90
2018-06-14T08:31:33.343Z,18.00
2018-06-14T08:34:02.411Z,17.90
2018-06-14T08:36:31.222Z,17.80
2018-06-14T08:39:00.110Z,17.90
2018-06-14T08:41:29.063Z,17.90
2018-06-14T08:43:57.896Z,18.00
2018-06-14T08:46:26.819Z,18.10
2018-06-14T08:48:55.788Z,18.10
2018-06-14T08:51:24.616Z,18.10
2018-06-14T08:53:53.484Z,18.10
2018-06-14T08:56:22.354Z,18.20
2018-06-14T08:58:51.273Z,18.20
2018-06-14T09:01:20.011Z,18.10
2018-06-14T09:03:48.829Z,18.20
2018-06-14T09:06:17.686Z,18.30
2018-06-14T09:08:46.806Z,18.30
2018-06-14T09:11:15.593Z,18.40
2018-06-14T09:13:44.442Z,18.60
2018-06-14T09:16:13.480Z,18.70
2018-06-14T09:18:42.320Z,18.80
2018-06-14T09:21:11.228Z,18.80
2018-06-14T09:23:40.096Z,18.90
2018-06-14T09:26:08.910Z,19.00
2018-06-14T09:28:37.686Z,19.20
2018-06-14T09:33:35.130Z,19.30
2018-06-14T09:36:04.100Z,19.40
2018-06-14T09:38:33.098Z,19.50
2018-06-14T09:41:01.958Z,19.60
2018-06-14T09:43:30.847Z,19.40
2018-06-14T09:45:59.681Z,19.40
2018-06-14T09:48:28.452Z,19.30
2018-06-14T09:50:57.344Z,19.40
2018-06-14T09:53:26.154Z,19.50
2018-06-14T09:55:55.154Z,19.80
2018-06-14T09:58:24.034Z,20.10
2018-06-14T10:00:53.071Z,20.50
2018-06-14T10:03:21.844Z,20.80
2018-06-14T10:08:19.066Z,21.40
2018-06-14T10:10:47.910Z,21.80
2018-06-14T10:13:16.750Z,22.20
2018-06-14T10:15:45.649Z,22.40
2018-06-14T10:18:15.740Z,22.40
2018-06-14T10:20:44.679Z,22.40
2018-06-14T10:23:13.508Z,22.50
2018-06-14T10:25:42.291Z,22.40
2018-06-14T10:28:11.230Z,22.40
2018-06-14T10:30:40.096Z,22.60
2018-06-14T10:33:08.820Z,22.80
2018-06-14T10:35:37.739Z,23.30
2018-06-14T10:38:06.608Z,23.40
2018-06-14T10:40:35.618Z,23.90
2018-06-14T10:43:05.834Z,23.70
2018-06-14T10:45:35.046Z,24.00
2018-06-14T10:48:03.984Z,24.20
2018-06-14T10:50:32.786Z,24.10
2018-06-14T10:53:01.511Z,24.30
2018-06-14T10:55:31.034Z,24.40
2018-06-14T10:57:59.977Z,24.70
2018-06-14T11:00:28.970Z,24.60
2018-06-14T11:02:57.747Z,24.30
2018-06-14T11:05:26.639Z,24.10
2018-06-14T11:07:56.089Z,24.00
2018-06-14T11:10:24.977Z,23.50
2018-06-14T11:12:53.771Z,22.90
2018-06-14T11:15:22.654Z,22.90
2018-06-14T11:17:51.495Z,22.90
2018-06-14T11:20:20.374Z,22.90
2018-06-14T11:22:49.268Z,23.00
2018-06-14T11:25:18.207Z,23.00
2018-06-14T11:27:47.135Z,22.90
2018-06-14T11:30:15.956Z,23.00
2018-06-14T11:32:46.050Z,23.20
2018-06-14T11:35:16.779Z,23.00
2018-06-14T11:37:46.003Z,23.00
2018-06-14T11:40:14.919Z,23.70
2018-06-14T11:42:43.739Z,25.00
2018-06-14T11:45:12.647Z,25.00
2018-06-14T11:47:41.575Z,24.80
2018-06-14T11:50:10.422Z,24.40
2018-06-14T11:52:39.151Z,25.20
2018-06-14T11:55:07.993Z,25.70
2018-06-14T11:57:36.772Z,25.90
2018-06-14T12:00:05.969Z,25.90
2018-06-14T12:02:34.893Z,26.70
2018-06-14T12:05:03.835Z,27.50
2018-06-14T12:07:33.235Z,28.70
2018-06-14T12:10:11.043Z,29.20
2018-06-14T12:12:40.503Z,29.70
2018-06-14T12:15:09.837Z,30.40
2018-06-14T12:17:38.724Z,29.90
2018-06-14T12:20:07.585Z,28.90
2018-06-14T12:22:42.281Z,27.40
2018-06-14T12:25:11.046Z,26.00
2018-06-14T12:27:39.882Z,25.60
2018-06-14T12:30:08.746Z,25.60
2018-06-14T12:32:37.769Z,25.60
2018-06-14T12:35:06.678Z,25.40
2018-06-14T12:37:35.549Z,25.20
2018-06-14T12:40:04.447Z,25.00
2018-06-14T12:42:33.602Z,24.80
2018-06-14T12:45:02.466Z,24.70
2018-06-14T12:47:31.255Z,24.40
2018-06-14T12:50:00.265Z,24.10
2018-06-14T12:52:29.041Z,23.80
2018-06-14T12:54:58.109Z,23.80
2018-06-14T12:57:26.953Z,23.50
2018-06-14T12:59:55.958Z,23.10
2018-06-14T13:02:24.871Z,22.90
2018-06-14T13:04:53.777Z,22.90
2018-06-14T13:07:22.629Z,23.30
2018-06-14T13:09:51.467Z,23.60
2018-06-14T13:12:20.364Z,24.00
2018-06-14T13:17:18.061Z,25.20
2018-06-14T13:19:47.089Z,26.10
2018-06-14T13:22:16.331Z,26.40
2018-06-14T13:24:45.479Z,27.00
2018-06-14T13:27:14.877Z,26.70
2018-06-14T13:29:43.814Z,26.50
2018-06-14T13:32:12.900Z,26.70
2018-06-14T13:34:41.817Z,27.30
2018-06-14T13:37:10.721Z,28.20
2018-06-14T13:39:39.657Z,28.30
2018-06-14T13:42:08.548Z,28.00
2018-06-14T13:44:37.343Z,28.20
2018-06-14T13:47:06.325Z,28.50
2018-06-14T13:49:35.302Z,28.20
2018-06-14T13:52:04.706Z,28.00
2018-06-14T13:54:33.633Z,28.60
2018-06-14T13:57:02.457Z,28.70
2018-06-14T14:01:59.680Z,28.80
2018-06-14T14:04:28.453Z,29.10
2018-06-14T14:07:02.589Z,29.50
2018-06-14T14:09:31.409Z,28.20
2018-06-14T14:12:00.462Z,27.00
2018-06-14T14:14:29.622Z,26.70
2018-06-14T14:16:58.823Z,27.20
2018-06-14T14:19:27.675Z,27.70
2018-06-14T14:21:56.532Z,27.70
2018-06-14T14:24:25.577Z,26.90
2018-06-14T14:26:54.515Z,26.30
2018-06-14T14:29:23.337Z,25.70
2018-06-14T14:31:52.597Z,25.30
2018-06-14T14:34:21.946Z,25.10
2018-06-14T14:36:50.837Z,25.00
2018-06-14T14:39:19.734Z,24.80
2018-06-14T14:41:48.588Z,24.80
2018-06-14T14:44:17.497Z,25.60
2018-06-14T14:46:46.477Z,26.60
2018-06-14T14:49:15.479Z,27.10
2018-06-14T14:51:44.357Z,27.10
2018-06-14T14:54:13.591Z,27.20
2018-06-14T14:56:42.729Z,27.10
2018-06-14T14:59:11.511Z,26.80
2018-06-14T15:01:40.579Z,26.20
2018-06-14T15:04:09.495Z,25.50
2018-06-14T15:06:38.488Z,25.00
2018-06-14T15:09:08.947Z,24.70
2018-06-14T15:11:37.797Z,24.10
2018-06-14T15:14:07.025Z,23.70
2018-06-14T15:16:35.938Z,23.70
2018-06-14T15:19:04.742Z,23.60
2018-06-14T15:21:33.618Z,24.10
2018-06-14T15:24:02.581Z,24.70
2018-06-14T15:26:31.856Z,25.10
2018-06-14T15:31:29.354Z,25.60
2018-06-14T15:33:58.149Z,25.60
2018-06-14T15:36:26.940Z,25.50
2018-06-14T15:38:55.797Z,25.70
2018-06-14T15:41:24.645Z,25.50
2018-06-14T15:43:53.703Z,25.30
2018-06-14T15:46:22.413Z,25.00
2018-06-14T15:48:51.241Z,24.40
2018-06-14T15:51:20.523Z,24.00
2018-06-14T15:53:49.601Z,23.70
2018-06-14T15:56:34.846Z,23.60
2018-06-14T15:59:05.946Z,23.70
2018-06-14T16:01:35.609Z,23.80
2018-06-14T16:04:07.157Z,24.00
2018-06-14T16:06:36.673Z,23.80
2018-06-14T16:09:09.629Z,23.60
2018-06-14T16:11:38.685Z,23.50
2018-06-14T16:14:08.008Z,23.60
2018-06-14T16:16:37.557Z,23.50
2018-06-14T16:19:06.394Z,23.50
2018-06-14T16:21:35.684Z,23.30
2018-06-14T16:24:04.696Z,23.20
2018-06-14T16:26:33.702Z,23.10
2018-06-14T16:29:02.627Z,22.80
2018-06-14T16:31:31.546Z,22.50
2018-06-14T16:34:00.861Z,22.30
2018-06-14T16:36:30.082Z,22.10
2018-06-14T16:38:58.908Z,22.00
2018-06-14T16:41:27.723Z,22.10
2018-06-14T16:43:56.592Z,22.10
2018-06-14T16:46:25.458Z,22.10
2018-06-14T16:48:54.528Z,22.00
2018-06-14T16:51:23.404Z,21.90
2018-06-14T16:53:52.306Z,21.90
2018-06-14T16:56:21.200Z,21.80
2018-06-14T16:58:50.150Z,21.70
2018-06-14T17:01:19.058Z,21.60
2018-06-14T17:03:47.784Z,21.50
2018-06-14T17:06:16.801Z,21.40
2018-06-14T17:08:45.757Z,21.40
2018-06-14T17:11:14.777Z,21.30
2018-06-14T17:13:43.953Z,21.40
2018-06-14T17:16:12.764Z,21.40
2018-06-14T17:18:42.188Z,21.40
2018-06-14T17:21:11.010Z,21.50
2018-06-14T17:23:40.063Z,21.50
2018-06-14T17:26:08.955Z,21.50
2018-06-14T17:28:38.088Z,21.60
2018-06-14T17:31:07.151Z,21.60
2018-06-14T17:33:36.137Z,21.60
2018-06-14T17:36:05.183Z,21.60
2018-06-14T17:38:34.084Z,21.60
2018-06-14T17:41:03.155Z,21.50
2018-06-14T17:43:31.865Z,21.40
2018-06-14T17:46:00.847Z,21.30
2018-06-14T17:48:29.696Z,21.10
2018-06-14T17:50:58.944Z,21.00
2018-06-14T17:53:28.551Z,20.90
2018-06-14T17:55:57.497Z,20.80
2018-06-14T17:58:37.036Z,20.60
2018-06-14T18:01:07.085Z,20.50
2018-06-14T18:03:36.470Z,20.40
2018-06-14T18:06:06.019Z,20.30
2018-06-14T18:08:35.162Z,20.20
2018-06-14T18:11:04.544Z,20.10
2018-06-14T18:13:34.183Z,20.00
2018-06-14T18:16:03.131Z,20.00
2018-06-14T18:18:32.086Z,19.90
2018-06-14T18:21:01.376Z,19.80
2018-06-14T18:23:30.352Z,19.70
2018-06-14T18:25:59.154Z,19.70
2018-06-14T18:28:27.949Z,19.70
2018-06-14T18:30:57.173Z,19.70
2018-06-14T18:33:25.894Z,19.60
2018-06-14T18:35:54.835Z,19.60
2018-06-14T18:38:23.738Z,19.50
2018-06-14T18:40:52.536Z,19.50
2018-06-14T18:43:21.407Z,19.50
2018-06-14T18:45:50.265Z,19.40
2018-06-14T18:48:19.197Z,19.40
2018-06-14T18:50:48.091Z,19.30
2018-06-14T18:53:16.981Z,19.20
2018-06-14T18:55:46.258Z,19.20
2018-06-14T18:58:15.508Z,19.20
2018-06-14T19:00:44.664Z,19.10
2018-06-14T19:03:14.168Z,19.10
2018-06-14T19:05:43.884Z,19.10
2018-06-14T19:08:13.016Z,19.00
2018-06-14T19:13:36.034Z,18.90
2018-06-14T19:16:04.969Z,18.90
2018-06-14T19:18:33.745Z,18.80
2018-06-14T19:21:02.641Z,18.80
2018-06-14T19:23:32.254Z,18.80
2018-06-14T19:26:01.048Z,18.80
2018-06-14T19:28:30.808Z,18.70
2018-06-14T19:31:00.000Z,18.70
2018-06-14T19:33:29.186Z,18.60
2018-06-14T19:35:58.360Z,18.50
2018-06-14T19:38:27.083Z,18.50
2018-06-14T19:40:56.025Z,18.50
2018-06-14T19:43:24.964Z,18.40
2018-06-14T19:45:56.152Z,18.40
2018-06-14T19:48:25.733Z,18.40
2018-06-14T19:50:54.756Z,18.40
2018-06-14T19:53:23.550Z,18.40
2018-06-14T19:55:52.586Z,18.40
2018-06-14T19:58:21.738Z,18.30
2018-06-14T20:00:50.874Z,18.30
2018-06-14T20:03:19.748Z,18.30
2018-06-14T20:05:48.624Z,18.20
2018-06-14T20:08:17.746Z,18.20
2018-06-14T20:10:46.721Z,18.20
2018-06-14T20:13:15.636Z,18.10
2018-06-14T20:15:44.540Z,18.10
2018-06-14T20:18:13.728Z,18.10
2018-06-14T20:20:47.374Z,18.00
2018-06-14T20:23:16.274Z,17.90
2018-06-14T20:25:45.170Z,17.90
2018-06-14T20:28:23.574Z,17.80
2018-06-14T20:30:52.712Z,17.80
2018-06-14T20:33:21.546Z,17.70
2018-06-14T20:35:50.560Z,17.70
2018-06-14T20:38:19.286Z,17.60
2018-06-14T20:40:48.123Z,17.60
2018-06-14T20:43:17.036Z,17.60
2018-06-14T20:45:46.094Z,17.60
2018-06-14T20:48:15.921Z,17.50
2018-06-14T20:50:45.380Z,17.60
2018-06-14T20:53:14.214Z,17.50
2018-06-14T20:55:43.700Z,17.50
2018-06-14T20:58:13.208Z,17.50
2018-06-14T21:00:42.121Z,17.40
2018-06-14T21:03:11.021Z,17.40
2018-06-14T21:05:39.780Z,17.40
2018-06-14T21:08:08.541Z,17.40
2018-06-14T21:10:37.416Z,17.30
2018-06-14T21:13:06.418Z,17.30
2018-06-14T21:15:35.536Z,17.30
2018-06-14T21:18:04.420Z,17.30
2018-06-14T21:20:33.364Z,17.30
2018-06-14T21:23:02.416Z,17.20
2018-06-14T21:25:31.318Z,17.10
2018-06-14T21:28:00.088Z,17.10
2018-06-14T21:30:29.086Z,17.00
2018-06-14T21:32:58.268Z,16.90
2018-06-14T21:35:27.138Z,16.90
2018-06-14T21:37:56.000Z,16.80
2018-06-14T21:40:24.908Z,16.80
2018-06-14T21:42:53.718Z,16.80
2018-06-14T21:45:22.545Z,16.70
2018-06-14T21:47:51.372Z,16.70
2018-06-14T21:50:20.322Z,16.60
2018-06-14T21:52:49.183Z,16.60
2018-06-14T21:57:46.281Z,16.40
2018-06-14T22:00:15.215Z,16.40
2018-06-14T22:02:56.336Z,16.30
2018-06-14T22:05:25.303Z,16.30
2018-06-14T22:07:54.296Z,16.20
2018-06-14T22:12:51.559Z,16.10
2018-06-14T22:17:49.039Z,16.00
2018-06-14T22:20:18.158Z,15.90
2018-06-14T22:22:47.008Z,15.80
2018-06-14T22:25:15.914Z,15.80
2018-06-14T22:27:44.766Z,15.70
2018-06-14T22:30:13.644Z,15.70
2018-06-14T22:32:55.565Z,15.60
2018-06-14T22:35:29.543Z,15.50
2018-06-14T22:37:58.585Z,15.40
2018-06-14T22:42:55.997Z,15.40
2018-06-14T22:45:24.968Z,15.30
2018-06-14T22:47:53.957Z,15.30
2018-06-14T22:50:34.237Z,15.30
2018-06-14T22:53:05.833Z,15.20
2018-06-14T22:55:34.798Z,15.20
2018-06-14T22:58:03.850Z,15.10
2018-06-14T23:03:08.710Z,15.00
2018-06-14T23:05:37.574Z,15.00
2018-06-14T23:08:06.702Z,15.00
2018-06-14T23:11:44.350Z,14.90
2018-06-14T23:14:13.160Z,14.90
2018-06-14T23:16:42.250Z,14.80
2018-06-14T23:19:11.082Z,14.70
2018-06-14T23:21:39.954Z,14.70
2018-06-14T23:24:08.827Z,14.60
2018-06-14T23:26:37.725Z,14.60
2018-06-14T23:29:06.844Z,14.50
2018-06-14T23:31:35.680Z,14.50
2018-06-14T23:34:04.485Z,14.50
2018-06-14T23:36:33.320Z,14.40
2018-06-14T23:39:02.186Z,14.40
2018-06-14T23:41:31.038Z,14.40
2018-06-14T23:44:00.096Z,14.30
2018-06-14T23:46:28.961Z,14.30
2018-06-14T23:48:57.884Z,14.30
2018-06-14T23:51:26.700Z,14.30
2018-06-14T23:53:59.397Z,14.30
2018-06-14T23:56:28.146Z,14.20
2018-06-14T23:58:56.919Z,14.20
